Time;durP1;ratioP1;P1;durP2;ratioP2;P2;SDS_P1;SDS_P2;PMS_P1;PMS_P2;Temp;Humidity;BMP_temperature;BMP_pressure;BME280_temperature;BME280_humidity;BME280_pressure;Samples;Min_cycle;Max_cycle;Signal;HPM_P1;HPM_P2
2023/01/17 00:01:32;;;;;;;11.73;4.97;;;1.90;85.60;;;;;;4991877;28;20391;-77
2023/01/17 00:12:11;;;;;;;12.50;8.70;;;1.80;85.70;;;;;;4994066;28;20040;-75
2023/01/17 00:14:37;;;;;;;16.25;9.93;;;1.80;85.60;;;;;;4994132;28;20050;-74
2023/01/17 00:17:02;;;;;;;15.93;12.02;;;1.70;85.50;;;;;;4994353;28;20038;-77
2023/01/17 01:35:21;;;;;;;13.63;7.88;;;1.10;86.90;;;;;;4994040;28;20064;-77
2023/01/17 01:37:47;;;;;;;14.13;9.02;;;1.20;87.20;;;;;;4995084;28;20037;-75
2023/01/17 01:40:14;;;;;;;13.80;8.10;;;1.10;87.40;;;;;;5001278;28;20029;-77
2023/01/17 01:42:55;;;;;;;15.13;8.23;;;1.10;87.70;;;;;;5003142;28;20035;-75
2023/01/17 01:45:26;;;;;;;14.15;8.77;;;1.10;87.90;;;;;;5000597;28;20029;-76
2023/01/17 01:48:05;;;;;;;13.65;8.00;;;1.10;88.00;;;;;;4995578;28;20104;-74
2023/01/17 01:50:34;;;;;;;12.43;8.30;;;1.10;88.10;;;;;;4993221;28;20554;-74
2023/01/17 01:53:03;;;;;;;14.32;7.75;;;1.10;88.10;;;;;;4993080;28;20026;-74
2023/01/17 01:55:36;;;;;;;13.20;8.07;;;1.10;88.10;;;;;;4991979;28;20045;-76
2023/01/17 01:58:07;;;;;;;12.55;7.68;;;1.00;88.10;;;;;;4991168;28;21767;-76
2023/01/17 02:00:35;;;;;;;14.35;7.38;;;1.10;88.20;;;;;;4990406;28;20156;-75
2023/01/17 02:03:06;;;;;;;15.02;8.13;;;1.00;88.20;;;;;;4990910;28;20118;-78
2023/01/17 02:05:34;;;;;;;12.68;7.75;;;1.10;88.10;;;;;;4991934;28;20044;-76
2023/01/17 02:08:06;;;;;;;13.73;7.93;;;1.00;88.10;;;;;;4990706;28;20360;-75
2023/01/17 02:10:34;;;;;;;15.82;7.35;;;1.00;88.20;;;;;;4993784;28;20022;-77
2023/01/17 02:13:01;;;;;;;13.45;7.88;;;1.00;88.30;;;;;;4991794;28;20053;-75
2023/01/17 02:15:56;;;;;;;13.07;7.75;;;0.90;88.40;;;;;;4990430;28;20766;-75
2023/01/17 02:19:23;;;;;;;15.95;8.10;;;0.90;88.50;;;;;;4988023;28;20065;-74
2023/01/17 02:21:55;;;;;;;16.38;7.82;;;0.90;88.60;;;;;;4952521;28;20097;-76
2023/01/17 02:24:52;;;;;;;11.25;7.20;;;0.90;88.70;;;;;;4949392;28;20073;-76
2023/01/17 02:27:50;;;;;;;14.07;7.05;;;0.90;88.70;;;;;;4988354;28;20104;-74
2023/01/17 02:30:39;;;;;;;14.68;8.20;;;0.90;88.70;;;;;;4991698;28;20596;-76
2023/01/17 02:33:08;;;;;;;13.02;7.88;;;0.90;88.80;;;;;;4993341;28;20175;-76
2023/01/17 02:35:41;;;;;;;15.35;7.68;;;0.90;88.80;;;;;;4987710;28;20113;-75
2023/01/17 02:38:30;;;;;;;14.98;7.22;;;0.90;88.80;;;;;;4992428;28;20526;-74
2023/01/17 02:41:06;;;;;;;15.88;8.52;;;0.90;88.80;;;;;;4990243;28;20153;-75
2023/01/17 02:43:34;;;;;;;13.75;7.45;;;0.90;88.80;;;;;;4993118;28;20026;-73
2023/01/17 02:46:00;;;;;;;18.98;8.75;;;0.80;88.80;;;;;;4991538;28;20038;-73
2023/01/17 02:48:29;;;;;;;12.52;7.88;;;0.80;88.90;;;;;;4994296;28;20036;-73
2023/01/17 02:51:16;;;;;;;13.00;7.47;;;0.80;88.90;;;;;;4995803;28;20477;-76
2023/01/17 02:53:50;;;;;;;11.73;7.75;;;0.80;89.00;;;;;;4997146;28;20037;-73
2023/01/17 02:56:33;;;;;;;14.10;7.47;;;0.70;89.00;;;;;;4994771;28;20046;-72
2023/01/17 02:59:18;;;;;;;12.75;7.35;;;0.70;89.00;;;;;;4992932;28;20072;-73
2023/01/17 03:02:10;;;;;;;16.17;7.38;;;0.70;89.10;;;;;;4996780;28;20065;-76
2023/01/17 03:04:50;;;;;;;12.07;7.25;;;0.70;89.00;;;;;;4990821;28;20101;-73
2023/01/17 03:07:21;;;;;;;11.70;7.55;;;0.60;89.00;;;;;;5003724;28;20045;-76
2023/01/17 03:09:52;;;;;;;15.18;7.82;;;0.60;89.00;;;;;;4997146;28;20034;-75
2023/01/17 03:12:21;;;;;;;15.48;7.95;;;0.60;89.00;;;;;;5007013;28;21149;-77
2023/01/17 03:14:47;;;;;;;12.18;7.35;;;0.60;89.10;;;;;;4994663;28;20612;-74
2023/01/17 03:17:13;;;;;;;13.90;7.53;;;0.60;89.10;;;;;;4994429;28;20048;-75
2023/01/17 03:19:39;;;;;;;14.15;7.72;;;0.60;89.10;;;;;;4994759;28;20029;-75
2023/01/17 03:22:05;;;;;;;16.10;7.70;;;0.60;89.20;;;;;;4994809;28;20495;-74
2023/01/17 03:24:30;;;;;;;16.08;8.07;;;0.60;89.20;;;;;;4996362;28;20104;-74
2023/01/17 03:26:56;;;;;;;12.35;7.65;;;0.60;89.20;;;;;;4995275;28;20092;-74
2023/01/17 03:29:22;;;;;;;13.88;8.35;;;0.60;89.20;;;;;;4994157;28;20107;-76
2023/01/17 03:31:47;;;;;;;14.60;8.23;;;0.60;89.20;;;;;;4995806;28;20030;-76
2023/01/17 03:34:13;;;;;;;11.80;7.82;;;0.60;89.20;;;;;;4996797;28;20022;-73
2023/01/17 03:36:38;;;;;;;14.48;8.40;;;0.60;89.20;;;;;;4995065;28;20605;-75
2023/01/17 03:39:04;;;;;;;16.38;8.60;;;0.60;89.20;;;;;;4994631;28;20068;-75
2023/01/17 03:41:30;;;;;;;14.55;8.30;;;0.60;89.20;;;;;;4994239;28;20041;-77
2023/01/17 03:43:55;;;;;;;13.65;8.20;;;0.60;89.20;;;;;;4988539;28;20030;-73
2023/01/17 03:46:27;;;;;;;14.95;8.90;;;0.70;89.20;;;;;;4995669;28;20571;-73
2023/01/17 03:48:53;;;;;;;12.93;8.35;;;0.70;89.20;;;;;;4994148;28;20040;-75
2023/01/17 03:51:19;;;;;;;14.27;8.35;;;0.70;89.10;;;;;;4994604;28;20038;-75
2023/01/17 03:53:48;;;;;;;17.55;9.13;;;0.70;89.10;;;;;;4995812;28;20022;-74
2023/01/17 03:56:14;;;;;;;15.35;9.45;;;0.70;89.10;;;;;;4991340;28;20135;-73
2023/01/17 03:58:40;;;;;;;16.52;10.40;;;0.70;89.00;;;;;;4992146;28;20570;-76
2023/01/17 04:01:06;;;;;;;16.58;8.48;;;0.80;89.00;;;;;;4996442;28;20080;-73
2023/01/17 04:03:32;;;;;;;12.80;8.82;;;0.80;89.00;;;;;;4994673;28;20034;-75
2023/01/17 04:05:57;;;;;;;15.27;9.23;;;0.80;89.00;;;;;;4992427;28;20068;-76
2023/01/17 04:08:23;;;;;;;19.77;9.63;;;0.80;89.00;;;;;;4995351;28;20497;-74
2023/01/17 04:10:49;;;;;;;15.07;9.07;;;0.90;89.00;;;;;;4994618;28;20042;-76
2023/01/17 04:13:15;;;;;;;14.48;9.05;;;0.90;88.90;;;;;;4994678;28;20057;-76
2023/01/17 04:15:44;;;;;;;19.90;9.45;;;0.90;88.80;;;;;;4993294;28;20050;-74
2023/01/17 04:18:11;;;;;;;13.98;8.57;;;0.90;88.70;;;;;;4992214;28;20097;-74
2023/01/17 04:20:38;;;;;;;15.48;9.30;;;0.90;88.50;;;;;;4998737;28;20018;-75
2023/01/17 04:23:05;;;;;;;14.60;8.88;;;0.90;88.50;;;;;;4990982;28;20026;-73
2023/01/17 04:25:31;;;;;;;15.57;9.73;;;0.90;88.60;;;;;;4990592;28;20096;-74
2023/01/17 04:27:58;;;;;;;16.52;9.23;;;0.90;88.60;;;;;;4993528;28;20030;-75
2023/01/17 04:30:25;;;;;;;13.18;8.50;;;0.90;88.50;;;;;;4993048;28;20029;-76
2023/01/17 04:32:51;;;;;;;18.33;9.65;;;0.90;88.40;;;;;;4994758;28;20799;-78
2023/01/17 04:35:17;;;;;;;15.70;9.18;;;0.90;88.50;;;;;;4992915;28;20033;-76
2023/01/17 04:37:42;;;;;;;16.52;9.43;;;0.80;88.40;;;;;;4995248;28;20058;-78
2023/01/17 04:40:10;;;;;;;15.13;9.65;;;0.80;88.40;;;;;;4991060;28;20656;-75
2023/01/17 04:42:36;;;;;;;17.67;10.05;;;0.80;88.40;;;;;;4991604;28;20046;-76
2023/01/17 04:45:02;;;;;;;18.77;9.95;;;0.80;88.40;;;;;;4994694;28;20109;-76
2023/01/17 04:47:28;;;;;;;16.38;9.70;;;0.80;88.50;;;;;;4992665;28;20042;-77
2023/01/17 04:49:53;;;;;;;14.60;9.63;;;0.70;88.40;;;;;;4992930;28;20018;-78
2023/01/17 04:52:20;;;;;;;23.63;10.65;;;0.70;88.40;;;;;;4990451;28;20128;-74
2023/01/17 04:54:48;;;;;;;13.65;9.15;;;0.60;88.30;;;;;;4993339;28;20037;-76
2023/01/17 04:57:17;;;;;;;17.98;9.77;;;0.50;88.40;;;;;;4993298;28;20034;-76
2023/01/17 04:59:43;;;;;;;20.33;10.45;;;0.50;88.40;;;;;;4994735;28;20557;-76
2023/01/17 05:02:10;;;;;;;19.52;10.85;;;0.40;88.60;;;;;;4996052;28;20029;-74
2023/01/17 05:04:35;;;;;;;18.45;10.18;;;0.40;88.70;;;;;;5003657;28;20160;-77
2023/01/17 05:07:01;;;;;;;16.88;10.80;;;0.40;88.80;;;;;;5005551;28;20132;-76
2023/01/17 05:09:27;;;;;;;18.00;11.75;;;0.40;88.90;;;;;;4998339;28;20055;-76
2023/01/17 05:11:54;;;;;;;17.77;10.25;;;0.40;88.90;;;;;;4996831;28;20029;-75
2023/01/17 05:14:20;;;;;;;15.32;10.38;;;0.40;88.80;;;;;;4996111;28;20064;-76
2023/01/17 05:16:46;;;;;;;15.55;10.50;;;0.30;88.80;;;;;;5001735;28;20667;-76
2023/01/17 05:19:12;;;;;;;17.20;10.52;;;0.20;88.90;;;;;;4996025;28;20041;-77
2023/01/17 05:21:37;;;;;;;20.17;12.07;;;0.20;89.00;;;;;;4998703;28;20056;-76
2023/01/17 05:24:03;;;;;;;17.55;11.23;;;0.20;89.00;;;;;;4996699;28;20103;-77
2023/01/17 05:26:29;;;;;;;17.02;11.25;;;0.20;89.00;;;;;;4993529;28;20045;-77
2023/01/17 05:28:54;;;;;;;19.17;11.75;;;0.20;89.00;;;;;;4991011;28;20937;-75
2023/01/17 05:31:20;;;;;;;21.08;12.10;;;0.10;89.10;;;;;;4993010;28;20030;-77
2023/01/17 05:33:46;;;;;;;17.88;11.98;;;0.10;89.20;;;;;;4995793;28;20038;-76
2023/01/17 05:36:11;;;;;;;18.63;11.80;;;0.10;89.30;;;;;;5009635;28;20080;-75
2023/01/17 05:38:37;;;;;;;18.63;11.63;;;0.10;89.40;;;;;;5009744;28;20085;-77
2023/01/17 05:41:03;;;;;;;19.42;12.38;;;0.10;89.40;;;;;;5004199;28;20029;-76
2023/01/17 05:43:30;;;;;;;19.27;12.27;;;0.10;89.40;;;;;;5002927;28;20029;-77
2023/01/17 05:45:55;;;;;;;23.00;12.43;;;0.00;89.40;;;;;;4990384;28;20034;-77
2023/01/17 05:48:21;;;;;;;22.98;12.82;;;0.00;89.30;;;;;;4992009;28;20030;-74
2023/01/17 05:50:47;;;;;;;18.58;11.75;;;0.00;89.20;;;;;;4991696;28;20410;-78
2023/01/17 05:53:15;;;;;;;19.90;12.27;;;0.00;89.30;;;;;;4990263;28;20490;-76
2023/01/17 05:55:41;;;;;;;18.45;12.55;;;-3276.70;89.30;;;;;;4997008;28;20037;-79
2023/01/17 05:58:16;;;;;;;20.15;12.38;;;-3276.70;89.40;;;;;;4994905;28;20021;-74
2023/01/17 06:00:42;;;;;;;23.85;15.05;;;-3276.70;89.50;;;;;;4992561;28;20514;-77
2023/01/17 06:03:10;;;;;;;24.08;15.63;;;-3276.70;89.70;;;;;;4993252;28;20060;-75
2023/01/17 06:05:36;;;;;;;25.75;14.73;;;-3276.60;89.80;;;;;;4995116;28;20088;-76
2023/01/17 06:08:02;;;;;;;22.20;14.32;;;-3276.60;89.80;;;;;;4990609;28;20608;-78
2023/01/17 06:10:28;;;;;;;22.65;13.73;;;-3276.70;89.90;;;;;;4991673;28;20030;-74
2023/01/17 06:13:05;;;;;;;22.27;13.63;;;-3276.60;89.80;;;;;;4989964;28;20088;-78
2023/01/17 06:15:31;;;;;;;18.83;12.85;;;-3276.60;89.80;;;;;;4987383;28;20066;-74
2023/01/17 06:17:57;;;;;;;19.17;12.82;;;-3276.60;89.90;;;;;;4991156;28;20041;-75
2023/01/17 06:20:22;;;;;;;19.30;13.45;;;-3276.60;89.90;;;;;;4991497;28;20161;-75
2023/01/17 06:22:48;;;;;;;18.58;12.70;;;-3276.50;89.90;;;;;;4989944;28;20112;-76
2023/01/17 06:25:14;;;;;;;19.08;13.35;;;-3276.50;90.00;;;;;;4989291;28;20046;-76
2023/01/17 06:27:40;;;;;;;23.27;14.15;;;-3276.50;90.10;;;;;;4988208;28;20033;-75
2023/01/17 06:30:06;;;;;;;21.75;14.85;;;-3276.40;90.10;;;;;;4988907;28;20041;-74
2023/01/17 06:32:32;;;;;;;21.20;14.35;;;-3276.50;90.10;;;;;;4989039;28;20064;-76
2023/01/17 06:34:57;;;;;;;21.85;15.30;;;-3276.50;90.10;;;;;;4992080;28;20030;-74
2023/01/17 06:37:23;;;;;;;23.05;14.98;;;-3276.40;90.20;;;;;;4987739;28;20061;-75
2023/01/17 06:39:49;;;;;;;23.50;15.57;;;-3276.40;90.20;;;;;;4993533;28;20030;-76
2023/01/17 06:42:14;;;;;;;22.63;14.93;;;-3276.40;90.30;;;;;;4997516;28;20077;-77
2023/01/17 06:44:40;;;;;;;26.08;16.15;;;-3276.40;90.30;;;;;;5015761;28;20022;-76
2023/01/17 06:47:06;;;;;;;23.52;14.55;;;-3276.40;90.30;;;;;;5002430;28;20474;-78
2023/01/17 06:49:31;;;;;;;30.50;19.40;;;-3276.30;90.30;;;;;;4992486;28;20030;-74
2023/01/17 06:51:57;;;;;;;26.92;18.42;;;-3276.30;90.40;;;;;;4988191;28;20540;-73
2023/01/17 06:54:23;;;;;;;28.25;19.40;;;-3276.40;90.40;;;;;;4989822;28;20022;-77
2023/01/17 06:56:49;;;;;;;27.35;18.95;;;-3276.30;90.30;;;;;;4991764;28;20049;-75
2023/01/17 06:59:14;;;;;;;32.00;20.05;;;-3276.30;90.30;;;;;;4991396;28;20034;-76
2023/01/17 07:01:40;;;;;;;36.33;22.15;;;-3276.30;90.40;;;;;;4989335;28;20046;-75
2023/01/17 07:04:06;;;;;;;32.75;20.77;;;-3276.30;90.40;;;;;;4991418;28;20458;-73
2023/01/17 07:06:33;;;;;;;28.27;19.23;;;-3276.30;90.40;;;;;;4989894;28;20447;-76
2023/01/17 07:08:59;;;;;;;24.25;16.98;;;-3276.20;90.50;;;;;;5006318;28;20076;-75
2023/01/17 07:11:26;;;;;;;26.73;18.63;;;-3276.20;90.50;;;;;;4991496;28;20617;-73
2023/01/17 07:13:52;;;;;;;24.52;18.10;;;-3276.20;90.50;;;;;;4992649;28;20399;-76
2023/01/17 07:16:17;;;;;;;26.90;20.05;;;-3276.20;90.60;;;;;;4991887;28;20036;-73
2023/01/17 07:18:43;;;;;;;26.67;20.35;;;-3276.20;90.60;;;;;;4992797;28;20018;-75
2023/01/17 07:21:14;;;;;;;26.70;19.05;;;-3276.20;90.60;;;;;;4991981;28;20042;-74
2023/01/17 07:23:40;;;;;;;27.35;19.65;;;-3276.20;90.70;;;;;;4994293;28;20470;-76
2023/01/17 07:26:06;;;;;;;25.88;17.67;;;-3276.20;90.70;;;;;;4989201;28;20053;-76
2023/01/17 07:28:32;;;;;;;28.70;19.63;;;-3276.20;90.60;;;;;;4991830;28;20030;-74
2023/01/17 07:30:58;;;;;;;27.92;19.25;;;-3276.10;90.70;;;;;;4993533;28;20042;-76
2023/01/17 07:33:23;;;;;;;31.02;20.92;;;-3276.10;90.70;;;;;;4996285;28;20022;-76
2023/01/17 07:35:49;;;;;;;30.80;20.38;;;-3276.10;90.80;;;;;;4993242;28;20053;-75
2023/01/17 07:38:17;;;;;;;30.95;18.98;;;-3276.20;90.80;;;;;;4996208;28;20277;-73
2023/01/17 07:40:43;;;;;;;27.63;18.63;;;-3276.20;90.40;;;;;;4992687;28;20269;-77
2023/01/17 07:43:12;;;;;;;26.83;17.92;;;-3276.10;90.40;;;;;;4995005;28;20400;-76
2023/01/17 07:45:43;;;;;;;25.80;17.50;;;-3276.10;90.40;;;;;;4992806;28;20018;-76
2023/01/17 07:48:10;;;;;;;28.98;19.48;;;-3276.10;90.40;;;;;;5003970;28;20038;-75
2023/01/17 07:50:36;;;;;;;27.58;19.00;;;-3276.10;90.50;;;;;;5009927;28;20489;-75
2023/01/17 07:53:02;;;;;;;27.42;18.65;;;-3276.10;90.50;;;;;;5004979;28;20032;-77
2023/01/17 07:55:28;;;;;;;25.63;18.73;;;-3276.00;90.50;;;;;;5006329;28;20034;-77
2023/01/17 07:57:54;;;;;;;26.90;18.40;;;-3276.00;90.60;;;;;;4999216;28;20437;-73
2023/01/17 08:00:21;;;;;;;24.52;17.65;;;-3276.00;90.70;;;;;;4992465;28;20021;-75
2023/01/17 08:02:48;;;;;;;25.90;17.60;;;-3276.10;90.70;;;;;;4995189;28;20030;-73
2023/01/17 08:05:14;;;;;;;26.05;18.38;;;-3276.10;90.70;;;;;;4997506;28;20026;-73
2023/01/17 08:07:40;;;;;;;27.40;17.15;;;-3276.20;90.70;;;;;;4990820;28;20046;-74
2023/01/17 08:10:11;;;;;;;25.77;17.63;;;-3276.20;90.70;;;;;;4991350;28;20415;-72
2023/01/17 08:12:37;;;;;;;26.45;18.15;;;-3276.20;90.70;;;;;;4992608;28;20041;-74
2023/01/17 08:15:03;;;;;;;31.55;19.50;;;-3276.30;90.60;;;;;;4993302;28;20046;-72
2023/01/17 08:17:29;;;;;;;31.08;20.67;;;-3276.30;90.50;;;;;;4996128;28;20553;-74
2023/01/17 08:19:54;;;;;;;34.75;22.48;;;-3276.30;90.40;;;;;;5009979;28;20101;-75
2023/01/17 08:22:21;;;;;;;34.72;22.23;;;-3276.30;90.40;;;;;;4990812;28;20034;-74
2023/01/17 08:24:47;;;;;;;35.05;23.38;;;-3276.30;90.40;;;;;;4997005;28;20132;-73
2023/01/17 08:27:13;;;;;;;33.78;23.75;;;-3276.30;90.30;;;;;;4992111;28;20063;-73
2023/01/17 08:29:41;;;;;;;34.20;24.27;;;-3276.40;90.30;;;;;;4994004;28;20454;-73
2023/01/17 08:32:07;;;;;;;33.42;21.88;;;-3276.40;90.20;;;;;;4995111;28;20055;-74
2023/01/17 08:34:32;;;;;;;35.58;23.15;;;-3276.40;90.30;;;;;;4974853;28;20050;-74
2023/01/17 08:36:58;;;;;;;34.83;23.80;;;-3276.50;90.30;;;;;;4994243;28;20053;-73
2023/01/17 08:39:26;;;;;;;31.67;22.17;;;-3276.50;90.30;;;;;;4998396;28;20042;-74
2023/01/17 08:41:52;;;;;;;31.67;21.85;;;-3276.50;90.20;;;;;;4996137;28;20038;-74
2023/01/17 08:44:18;;;;;;;30.00;21.08;;;-3276.60;90.20;;;;;;4994448;28;20033;-72
2023/01/17 08:46:44;;;;;;;33.75;21.38;;;-3276.70;90.20;;;;;;4999322;28;20077;-73
2023/01/17 08:49:11;;;;;;;30.42;21.77;;;-3276.70;90.10;;;;;;4999351;28;20058;-73
2023/01/17 08:51:37;;;;;;;32.13;22.13;;;0.00;90.10;;;;;;4999077;28;20558;-72
2023/01/17 08:54:03;;;;;;;29.55;21.05;;;0.00;90.10;;;;;;4992312;28;20025;-73
2023/01/17 08:56:28;;;;;;;32.80;21.52;;;0.10;90.10;;;;;;5007920;28;20062;-75
2023/01/17 08:58:54;;;;;;;29.23;19.95;;;0.20;90.10;;;;;;4987761;28;20033;-74
2023/01/17 09:01:20;;;;;;;32.97;22.05;;;0.30;90.20;;;;;;4992183;28;20046;-76
2023/01/17 09:03:47;;;;;;;34.33;21.85;;;0.40;90.10;;;;;;4991623;28;20108;-72
2023/01/17 09:06:15;;;;;;;36.58;23.00;;;0.60;90.10;;;;;;4993727;28;20690;-71
2023/01/17 09:08:45;;;;;;;31.08;21.63;;;0.70;90.00;;;;;;5001427;28;20017;-73
2023/01/17 09:11:13;;;;;;;33.78;21.98;;;0.80;89.90;;;;;;5009388;28;20064;-74
2023/01/17 09:13:39;;;;;;;34.28;21.75;;;1.00;89.70;;;;;;5007350;28;20061;-73
2023/01/17 09:16:06;;;;;;;31.60;21.27;;;1.10;89.50;;;;;;5006824;28;20071;-75
2023/01/17 09:18:34;;;;;;;29.73;21.02;;;1.20;89.10;;;;;;4996425;28;20060;-73
2023/01/17 09:21:09;;;;;;;29.98;21.30;;;1.30;88.70;;;;;;4993610;28;20038;-73
2023/01/17 09:23:35;;;;;;;33.63;22.23;;;1.40;88.30;;;;;;4995618;28;20986;-75
2023/01/17 09:26:00;;;;;;;30.83;21.67;;;1.50;88.00;;;;;;4978086;28;20038;-73
2023/01/17 09:28:26;;;;;;;29.77;20.27;;;1.50;87.40;;;;;;4991726;28;20113;-72
2023/01/17 09:30:53;;;;;;;33.90;22.02;;;1.60;87.60;;;;;;4991545;28;20030;-74
2023/01/17 09:33:19;;;;;;;29.60;22.60;;;1.70;87.00;;;;;;4992876;28;20039;-73
2023/01/17 09:35:45;;;;;;;32.38;23.02;;;1.70;86.80;;;;;;4991517;28;20034;-73
2023/01/17 09:38:12;;;;;;;30.35;21.17;;;1.80;86.60;;;;;;4994692;28;20754;-73
2023/01/17 09:40:46;;;;;;;31.40;20.33;;;1.90;86.40;;;;;;4990207;28;20133;-73
2023/01/17 09:43:38;;;;;;;28.73;19.40;;;2.00;86.00;;;;;;4998068;28;20034;-74
2023/01/17 09:46:09;;;;;;;28.85;18.08;;;2.10;85.80;;;;;;4999827;28;20042;-74
2023/01/17 09:48:37;;;;;;;28.58;19.85;;;2.30;85.90;;;;;;4996856;28;20822;-73
2023/01/17 09:51:17;;;;;;;26.20;18.92;;;2.30;85.30;;;;;;4989301;28;20121;-73
2023/01/17 09:53:43;;;;;;;31.15;20.63;;;2.40;84.90;;;;;;4991195;28;20026;-75
2023/01/17 09:56:28;;;;;;;26.20;18.38;;;2.40;84.60;;;;;;4990969;28;20277;-74
2023/01/17 09:59:17;;;;;;;29.58;19.35;;;2.60;84.50;;;;;;4989612;28;20199;-73
2023/01/17 10:02:04;;;;;;;24.10;18.08;;;2.60;83.70;;;;;;4988583;28;20026;-74
2023/01/17 10:04:59;;;;;;;26.38;17.65;;;2.80;84.20;;;;;;4991746;28;20378;-72
2023/01/17 10:07:37;;;;;;;29.00;17.65;;;2.90;83.60;;;;;;4988620;28;20051;-71
2023/01/17 10:10:24;;;;;;;22.30;16.15;;;2.90;83.30;;;;;;4989096;28;20030;-73
2023/01/17 10:13:23;;;;;;;22.13;14.70;;;3.10;83.30;;;;;;4991261;28;20045;-74
2023/01/17 10:16:18;;;;;;;26.95;16.90;;;3.10;82.30;;;;;;4995032;28;20046;-73
2023/01/17 10:19:27;;;;;;;23.40;16.83;;;3.30;82.40;;;;;;4997287;28;20041;-74
2023/01/17 10:22:11;;;;;;;26.55;18.00;;;3.40;81.80;;;;;;4980126;28;20034;-74
2023/01/17 10:24:57;;;;;;;23.33;16.42;;;3.40;80.70;;;;;;4991641;28;20132;-74
2023/01/17 10:27:28;;;;;;;22.77;15.52;;;3.40;81.10;;;;;;4986008;28;20038;-74
2023/01/17 10:29:53;;;;;;;21.10;14.85;;;3.50;81.00;;;;;;4994369;28;21080;-74
2023/01/17 10:32:23;;;;;;;24.38;15.05;;;3.60;81.30;;;;;;4986842;28;21387;-74
2023/01/17 10:35:00;;;;;;;22.90;14.82;;;3.60;80.50;;;;;;4996035;28;20578;-72
2023/01/17 10:37:39;;;;;;;23.67;15.48;;;3.70;80.70;;;;;;4993256;28;20041;-74
2023/01/17 10:40:15;;;;;;;27.17;17.35;;;3.90;80.00;;;;;;4996717;28;20173;-74
2023/01/17 10:43:01;;;;;;;25.65;15.48;;;4.00;80.00;;;;;;4994438;28;20125;-72
2023/01/17 10:45:27;;;;;;;26.00;18.17;;;4.00;79.40;;;;;;4991188;28;20038;-75
2023/01/17 10:48:33;;;;;;;23.33;16.65;;;4.10;79.50;;;;;;4992116;28;20022;-74
2023/01/17 10:51:17;;;;;;;26.30;17.65;;;4.20;78.90;;;;;;4988400;28;20151;-75
2023/01/17 10:53:49;;;;;;;25.27;16.92;;;4.20;78.40;;;;;;4989860;28;20382;-74
2023/01/17 10:56:17;;;;;;;22.85;15.80;;;4.20;78.40;;;;;;4995578;28;20052;-75
2023/01/17 10:58:42;;;;;;;24.92;16.08;;;4.20;78.80;;;;;;4992489;28;20037;-74
2023/01/17 11:01:21;;;;;;;21.90;15.07;;;4.30;78.90;;;;;;4990151;28;20026;-74
2023/01/17 11:03:52;;;;;;;19.13;13.15;;;4.30;78.10;;;;;;4987197;28;20538;-74
2023/01/17 11:06:24;;;;;;;20.58;13.82;;;4.40;78.30;;;;;;4994057;28;20425;-75
2023/01/17 11:08:51;;;;;;;16.95;12.35;;;4.40;78.30;;;;;;4996461;28;20037;-75
2023/01/17 11:11:19;;;;;;;18.25;11.93;;;4.40;77.40;;;;;;4995088;28;20116;-74
2023/01/17 11:13:47;;;;;;;17.20;11.43;;;4.50;77.80;;;;;;4996385;28;20052;-74
2023/01/17 11:16:20;;;;;;;19.38;12.88;;;4.50;77.10;;;;;;4993229;28;20530;-74
2023/01/17 11:19:02;;;;;;;18.17;11.43;;;4.50;77.10;;;;;;4989961;28;20026;-74
2023/01/17 11:21:28;;;;;;;17.60;11.23;;;4.60;77.10;;;;;;4999845;28;20022;-74
2023/01/17 11:23:56;;;;;;;18.08;11.07;;;4.60;76.10;;;;;;4992193;28;20036;-74
2023/01/17 11:26:33;;;;;;;16.35;10.70;;;4.70;75.70;;;;;;4990890;28;20042;-75
2023/01/17 11:29:37;;;;;;;17.38;9.40;;;4.70;74.60;;;;;;4990221;28;20038;-73
2023/01/17 11:32:28;;;;;;;12.65;8.07;;;4.70;75.40;;;;;;4992046;28;20058;-74
2023/01/17 11:35:06;;;;;;;18.02;8.45;;;4.70;75.00;;;;;;4995609;28;20026;-73
2023/01/17 11:37:34;;;;;;;15.43;7.70;;;4.90;75.00;;;;;;4992888;28;20073;-74
2023/01/17 11:40:28;;;;;;;13.20;7.53;;;5.00;73.90;;;;;;4992496;28;20038;-74
2023/01/17 11:43:13;;;;;;;13.15;6.82;;;5.10;73.00;;;;;;4974058;28;20053;-74
2023/01/17 11:45:40;;;;;;;14.80;9.02;;;5.10;72.00;;;;;;4995352;28;20030;-74
2023/01/17 11:48:12;;;;;;;13.00;7.75;;;5.10;72.30;;;;;;4995345;28;20029;-73
2023/01/17 11:50:43;;;;;;;13.68;7.50;;;5.10;72.90;;;;;;4995712;28;20041;-75
2023/01/17 11:53:20;;;;;;;14.13;7.38;;;5.20;72.10;;;;;;4993036;28;20026;-74
2023/01/17 11:55:53;;;;;;;15.32;8.65;;;5.30;71.50;;;;;;4991576;28;20048;-73
2023/01/17 11:58:20;;;;;;;15.65;7.72;;;5.20;70.80;;;;;;4993766;28;20180;-73
2023/01/17 12:00:57;;;;;;;14.27;7.13;;;5.30;71.50;;;;;;4992536;28;20058;-73
2023/01/17 12:03:54;;;;;;;13.38;6.43;;;5.20;70.30;;;;;;4994553;28;20038;-73
2023/01/17 12:06:42;;;;;;;11.68;5.18;;;5.20;69.20;;;;;;4997125;28;20045;-73
2023/01/17 12:09:23;;;;;;;10.50;4.30;;;5.30;69.90;;;;;;4997478;28;20119;-72
2023/01/17 12:14:55;;;;;;;7.68;4.18;;;5.50;69.00;;;;;;4999641;28;20047;-73
2023/01/17 12:17:51;;;;;;;13.50;4.93;;;5.60;69.00;;;;;;4994363;28;20036;-73
2023/01/17 12:21:01;;;;;;;11.63;4.10;;;5.60;68.00;;;;;;4991527;28;20117;-72
2023/01/17 12:23:39;;;;;;;14.02;4.80;;;5.60;67.80;;;;;;4992713;28;20572;-73
2023/01/17 12:26:19;;;;;;;10.00;6.18;;;5.60;67.80;;;;;;4994696;28;20038;-74
2023/01/17 12:29:40;;;;;;;12.30;4.78;;;5.60;68.30;;;;;;4992719;28;20030;-72
2023/01/17 12:32:23;;;;;;;9.18;3.80;;;5.70;67.90;;;;;;4975723;28;20035;-73
2023/01/17 12:35:02;;;;;;;12.57;8.43;;;5.70;67.40;;;;;;4980145;28;20115;-74
2023/01/17 12:37:37;;;;;;;11.55;3.83;;;5.80;67.20;;;;;;4990356;28;20514;-75
2023/01/17 12:40:17;;;;;;;12.20;3.38;;;5.80;66.80;;;;;;4996782;28;20022;-74
2023/01/17 12:43:38;;;;;;;4.47;2.47;;;5.80;67.00;;;;;;4994086;28;21234;-75
2023/01/17 12:46:19;;;;;;;5.20;2.80;;;5.80;64.10;;;;;;4923226;28;20577;-74
2023/01/17 12:48:50;;;;;;;8.32;2.83;;;5.90;63.70;;;;;;4987221;28;20868;-74
2023/01/17 12:51:23;;;;;;;10.60;3.28;;;5.80;59.90;;;;;;4987161;28;20542;-75
2023/01/17 12:54:12;;;;;;;12.82;5.63;;;5.50;59.50;;;;;;4983855;28;20034;-75
2023/01/17 12:57:38;;;;;;;9.35;3.17;;;5.50;62.80;;;;;;4984925;28;20073;-75
2023/01/17 13:00:12;;;;;;;4.90;2.30;;;5.30;60.90;;;;;;4965024;28;20093;-77
2023/01/17 13:02:46;;;;;;;5.32;2.40;;;5.40;60.10;;;;;;4962953;28;20267;-76
2023/01/17 13:05:31;;;;;;;7.32;2.70;;;5.50;59.90;;;;;;4976993;28;20767;-75
2023/01/17 13:08:16;;;;;;;6.85;2.80;;;5.50;60.00;;;;;;4991038;28;20434;-74
2023/01/17 13:10:51;;;;;;;5.28;2.08;;;5.60;58.80;;;;;;4991064;28;20041;-74
2023/01/17 13:13:23;;;;;;;4.97;1.80;;;5.60;57.30;;;;;;4991904;28;20037;-74
2023/01/17 13:15:59;;;;;;;10.63;3.95;;;5.60;57.30;;;;;;4983312;28;20057;-76
2023/01/17 13:18:28;;;;;;;6.97;2.53;;;5.60;56.90;;;;;;4982254;28;20036;-76
2023/01/17 13:21:16;;;;;;;8.32;2.78;;;5.60;56.00;;;;;;4982493;28;20040;-75
2023/01/17 13:23:47;;;;;;;10.20;3.50;;;5.40;57.60;;;;;;4985216;28;20026;-77
2023/01/17 13:26:26;;;;;;;7.30;3.80;;;5.50;59.20;;;;;;4983519;28;20125;-75
2023/01/17 13:29:27;;;;;;;12.45;3.22;;;5.50;60.00;;;;;;4982265;28;20018;-75
2023/01/17 13:32:28;;;;;;;7.25;2.65;;;5.60;60.10;;;;;;4983321;28;20045;-75
2023/01/17 13:35:25;;;;;;;8.27;3.45;;;5.60;60.60;;;;;;4985882;28;20705;-74
2023/01/17 13:38:14;;;;;;;8.30;3.78;;;5.70;60.40;;;;;;4980465;28;20135;-75
2023/01/17 13:40:47;;;;;;;6.97;2.97;;;5.40;57.90;;;;;;4980727;28;20094;-73
2023/01/17 13:46:52;;;;;;;9.05;4.22;;;5.30;59.40;;;;;;4964343;28;20049;-75
2023/01/17 13:49:27;;;;;;;7.47;3.22;;;5.40;60.60;;;;;;4981215;28;20026;-75
2023/01/17 13:52:09;;;;;;;7.90;3.55;;;5.50;59.80;;;;;;4985026;28;20033;-74
2023/01/17 13:54:44;;;;;;;8.65;3.63;;;5.20;56.70;;;;;;4980389;28;20022;-74
2023/01/17 13:57:25;;;;;;;9.13;3.42;;;5.00;59.20;;;;;;4987456;28;20041;-76
2023/01/17 13:59:52;;;;;;;10.25;4.00;;;5.00;59.30;;;;;;4989192;28;20072;-76
2023/01/17 14:02:37;;;;;;;8.27;3.20;;;4.90;59.80;;;;;;4993149;28;20079;-76
2023/01/17 14:05:22;;;;;;;10.70;4.85;;;4.90;60.10;;;;;;4994804;28;20148;-76
2023/01/17 14:08:01;;;;;;;8.07;2.80;;;4.80;58.80;;;;;;4999061;28;20034;-75
2023/01/17 14:10:29;;;;;;;7.13;2.92;;;4.70;59.10;;;;;;4990332;28;20034;-75
2023/01/17 14:12:55;;;;;;;6.63;3.10;;;4.70;59.20;;;;;;4993559;28;20708;-74
2023/01/17 14:15:26;;;;;;;6.28;3.13;;;4.90;60.50;;;;;;4986311;28;20069;-77
2023/01/17 14:18:02;;;;;;;10.43;3.10;;;4.90;58.10;;;;;;4980388;28;20030;-75
2023/01/17 14:20:34;;;;;;;7.25;3.22;;;4.90;58.10;;;;;;4987583;28;20109;-74
2023/01/17 14:23:02;;;;;;;10.50;3.40;;;4.80;58.40;;;;;;4978214;28;20034;-75
2023/01/17 14:25:36;;;;;;;10.25;5.15;;;4.80;59.30;;;;;;4992037;28;20038;-74
2023/01/17 14:28:17;;;;;;;9.23;3.97;;;4.80;60.20;;;;;;4980009;28;20113;-74
2023/01/17 14:30:44;;;;;;;10.05;3.50;;;4.80;61.30;;;;;;4984006;28;20031;-75